Time;durP1;ratioP1;P1;durP2;ratioP2;P2;SDS_P1;SDS_P2;PMS_P1;PMS_P2;Temp;Humidity;BMP_temperature;BMP_pressure;BME280_temperature;BME280_humidity;BME280_pressure;Samples;Min_cycle;Max_cycle;Signal;HPM_P1;HPM_P2
2022/05/13 00:02:16;;;;;;;;;;;;;;;16.49;44.85;101409.78;5060949;28;20013;-49
2022/05/13 00:04:41;;;;;;;;;;;;;;;16.45;45.02;101410.00;5061878;28;19933;-51
2022/05/13 00:07:07;;;;;;;;;;;;;;;16.44;45.00;101413.63;5069657;28;19927;-47
2022/05/13 00:12:17;;;;;;;;;;;;;;;16.40;45.14;101419.28;5067503;28;20034;-48
2022/05/13 00:14:43;;;;;;;;;;;;;;;16.38;45.26;101419.38;5064647;28;20396;-48
2022/05/13 00:17:08;;;;;;;;;;;;;;;16.38;45.26;101419.38;5068712;28;19923;-48
2022/05/13 00:19:34;;;;;;;;;;;;;;;16.34;45.39;101417.91;5071469;28;19920;-47
2022/05/13 00:21:59;;;;;;;;;;;;;;;16.32;45.46;101419.81;5065329;28;19916;-46
2022/05/13 00:24:24;;;;;;;;;;;;;;;16.28;45.47;101407.72;5071034;28;19936;-48
2022/05/13 00:26:50;;;;;;;;;;;;;;;16.23;45.70;101416.00;5064782;28;19921;-48
2022/05/13 00:29:15;;;;;;;;;;;;;;;16.18;45.80;101410.19;5070015;28;19924;-48
2022/05/13 00:31:42;;;;;;;;;;;;;;;16.17;45.76;101412.94;5073486;28;19928;-49
2022/05/13 00:34:08;;;;;;;;;;;;;;;16.14;45.68;101412.19;5074898;28;19917;-48
2022/05/13 00:36:34;;;;;;;;;;;;;;;16.10;46.07;101407.22;5070750;28;20396;-49
2022/05/13 00:39:00;;;;;;;;;;;;;;;16.05;46.07;101402.25;5072166;28;19931;-52
2022/05/13 00:41:26;;;;;;;;;;;;;;;16.01;46.24;101395.44;5076089;28;20015;-48
2022/05/13 00:43:52;;;;;;;;;;;;;;;15.98;46.17;101407.13;5069887;28;19926;-49
2022/05/13 00:46:21;;;;;;;;;;;;;;;15.94;46.34;101404.81;5070053;28;20276;-48
2022/05/13 00:48:47;;;;;;;;;;;;;;;15.93;46.26;101397.81;5074913;28;19929;-48
2022/05/13 00:51:14;;;;;;;;;;;;;;;15.91;46.18;101408.50;5074963;28;19999;-49
2022/05/13 00:53:40;;;;;;;;;;;;;;;15.88;46.24;101402.56;5073699;28;20011;-47
2022/05/13 00:56:06;;;;;;;;;;;;;;;15.82;46.34;101402.00;5071382;28;20003;-48
2022/05/13 00:58:33;;;;;;;;;;;;;;;15.79;46.38;101402.25;5072343;28;19920;-48
2022/05/13 01:00:58;;;;;;;;;;;;;;;15.77;46.40;101398.84;5059897;28;19917;-49
2022/05/13 01:03:23;;;;;;;;;;;;;;;15.76;46.23;101402.44;5068752;28;19935;-51
2022/05/13 01:05:53;;;;;;;;;;;;;;;15.73;46.48;101401.81;5072568;28;19962;-48
2022/05/13 01:08:20;;;;;;;;;;;;;;;15.70;46.58;101401.06;5069601;28;20033;-50
2022/05/13 01:10:46;;;;;;;;;;;;;;;15.69;46.59;101398.50;5065634;28;20403;-49
2022/05/13 01:13:13;;;;;;;;;;;;;;;15.65;46.69;101395.22;5067030;28;19958;-49
2022/05/13 01:15:41;;;;;;;;;;;;;;;15.67;46.72;101400.41;5071062;28;19974;-51
2022/05/13 01:18:07;;;;;;;;;;;;;;;15.63;46.85;101402.44;5066184;28;23762;-49
2022/05/13 01:20:35;;;;;;;;;;;;;;;15.60;46.83;101401.81;5065077;28;19928;-50
2022/05/13 01:23:09;;;;;;;;;;;;;;;15.57;46.98;101407.31;5073125;28;20015;-50
2022/05/13 01:25:38;;;;;;;;;;;;;;;15.52;46.97;101405.81;5063430;28;20402;-48
2022/05/13 01:28:08;;;;;;;;;;;;;;;15.47;46.98;101402.66;5066487;28;19916;-49
2022/05/13 01:30:33;;;;;;;;;;;;;;;15.41;47.03;101405.69;5069700;28;20015;-49
2022/05/13 01:32:59;;;;;;;;;;;;;;;15.34;47.11;101401.78;5071446;28;20008;-49
2022/05/13 01:35:24;;;;;;;;;;;;;;;15.28;47.10;101399.53;5071663;28;20407;-47
2022/05/13 01:37:50;;;;;;;;;;;;;;;15.26;47.19;101401.44;5066950;28;20019;-45
2022/05/13 01:40:16;;;;;;;;;;;;;;;15.25;47.21;101403.25;5064575;28;20334;-47
2022/05/13 01:42:41;;;;;;;;;;;;;;;15.24;47.33;101401.56;5070035;28;20003;-47
2022/05/13 01:45:08;;;;;;;;;;;;;;;15.23;47.44;101399.84;5062260;28;19921;-48
2022/05/13 01:47:34;;;;;;;;;;;;;;;15.21;47.51;101385.84;5068040;28;19920;-48
2022/05/13 01:50:00;;;;;;;;;;;;;;;15.22;47.29;101388.38;5061735;28;19963;-50
2022/05/13 01:52:25;;;;;;;;;;;;;;;15.23;47.39;101384.78;5069022;28;19929;-48
2022/05/13 01:54:50;;;;;;;;;;;;;;;15.24;47.56;101389.13;5069330;28;19935;-48
2022/05/13 01:57:16;;;;;;;;;;;;;;;15.23;47.36;101382.13;5063133;28;19939;-48
2022/05/13 01:59:41;;;;;;;;;;;;;;;15.19;47.41;101379.78;5063885;28;19931;-48
2022/05/13 02:02:06;;;;;;;;;;;;;;;15.17;47.68;101381.69;5063340;28;19924;-47
2022/05/13 02:04:32;;;;;;;;;;;;;;;15.15;47.78;101376.50;5065606;28;19924;-48
2022/05/13 02:06:57;;;;;;;;;;;;;;;15.14;47.63;101390.72;5065499;28;20007;-49
2022/05/13 02:09:23;;;;;;;;;;;;;;;15.13;47.67;101391.66;5068952;28;19959;-48
2022/05/13 02:11:48;;;;;;;;;;;;;;;15.11;47.75;101385.59;5070951;28;19916;-50
2022/05/13 02:14:14;;;;;;;;;;;;;;;15.08;47.80;101389.31;5070444;28;20432;-48
2022/05/13 02:16:40;;;;;;;;;;;;;;;15.07;47.88;101389.41;5064841;28;19932;-47
2022/05/13 02:19:05;;;;;;;;;;;;;;;15.04;47.85;101392.28;5060597;28;19917;-49
2022/05/13 02:21:31;;;;;;;;;;;;;;;15.01;48.08;101389.81;5062651;28;19936;-48
2022/05/13 02:23:56;;;;;;;;;;;;;;;14.97;48.11;101385.69;5067041;28;19962;-48
2022/05/13 02:26:21;;;;;;;;;;;;;;;14.94;47.96;101382.28;5070798;28;20391;-48
2022/05/13 02:28:47;;;;;;;;;;;;;;;14.92;48.25;101381.53;5063742;28;20291;-49
2022/05/13 02:31:13;;;;;;;;;;;;;;;14.87;48.14;101388.94;5066283;28;19921;-48
2022/05/13 02:33:39;;;;;;;;;;;;;;;14.80;48.18;101382.34;5070053;28;20307;-48
2022/05/13 02:36:05;;;;;;;;;;;;;;;14.75;48.42;101376.47;5066200;28;19974;-48
2022/05/13 02:38:31;;;;;;;;;;;;;;;14.73;48.42;101391.66;5068718;28;19932;-49
2022/05/13 02:41:12;;;;;;;;;;;;;;;14.70;48.38;101378.59;5060974;28;19916;-50
2022/05/13 02:43:38;;;;;;;;;;;;;;;14.69;48.42;101366.28;5067577;28;19920;-48
2022/05/13 02:46:03;;;;;;;;;;;;;;;14.68;48.46;101368.09;5075191;28;19920;-48
2022/05/13 02:48:29;;;;;;;;;;;;;;;14.68;48.66;101365.44;5068412;28;19927;-47
2022/05/13 02:50:54;;;;;;;;;;;;;;;14.68;48.65;101362.78;5063162;28;19928;-49
2022/05/13 02:53:20;;;;;;;;;;;;;;;14.66;48.64;101366.47;5063647;28;20620;-48
2022/05/13 02:55:46;;;;;;;;;;;;;;;14.64;48.66;101371.88;5066243;28;19921;-47
2022/05/13 02:58:11;;;;;;;;;;;;;;;14.63;48.93;101364.88;5073583;28;19928;-48
2022/05/13 03:00:37;;;;;;;;;;;;;;;14.59;48.94;101369.53;5067031;28;19955;-49
2022/05/13 03:03:02;;;;;;;;;;;;;;;14.54;49.08;101368.97;5071399;28;20019;-49
2022/05/13 03:05:29;;;;;;;;;;;;;;;14.52;49.17;101368.22;5064434;28;19920;-47
2022/05/13 03:07:56;;;;;;;;;;;;;;;14.52;49.06;101367.38;5063401;28;19948;-48
2022/05/13 03:10:21;;;;;;;;;;;;;;;14.50;49.03;101361.31;5065626;28;19999;-47
2022/05/13 03:12:47;;;;;;;;;;;;;;;14.50;49.20;101362.16;5071094;28;20004;-47
2022/05/13 03:15:12;;;;;;;;;;;;;;;14.49;49.08;101360.47;5073118;28;20015;-49
2022/05/13 03:17:39;;;;;;;;;;;;;;;14.50;49.13;101370.09;5068000;28;19920;-48
2022/05/13 03:20:06;;;;;;;;;;;;;;;14.51;49.18;101361.22;5065032;28;19933;-48
2022/05/13 03:22:32;;;;;;;;;;;;;;;14.50;49.09;101362.16;5068182;28;20452;-47
2022/05/13 03:24:57;;;;;;;;;;;;;;;14.50;49.14;101364.81;5063809;28;20364;-48
2022/05/13 03:27:23;;;;;;;;;;;;;;;14.53;49.23;101363.75;5059900;28;19928;-48
2022/05/13 03:29:48;;;;;;;;;;;;;;;14.55;49.10;101357.44;5069078;28;19924;-47
2022/05/13 03:32:13;;;;;;;;;;;;;;;14.55;49.25;101352.13;5072087;28;19924;-48
2022/05/13 03:34:39;;;;;;;;;;;;;;;14.55;49.22;101353.91;5071852;28;19924;-49
2022/05/13 03:37:05;;;;;;;;;;;;;;;14.55;49.03;101345.97;5062796;28;19920;-52
2022/05/13 03:39:30;;;;;;;;;;;;;;;14.53;49.26;101348.72;5066478;28;20533;-48
2022/05/13 03:41:56;;;;;;;;;;;;;;;14.50;49.30;101348.09;5066406;28;19925;-48
2022/05/13 03:44:21;;;;;;;;;;;;;;;14.49;49.25;101365.75;5066224;28;19925;-48
2022/05/13 03:46:47;;;;;;;;;;;;;;;14.48;49.30;101366.69;5063014;28;19931;-48
2022/05/13 03:49:12;;;;;;;;;;;;;;;14.47;49.19;101365.00;5066415;28;20455;-45
2022/05/13 03:51:38;;;;;;;;;;;;;;;14.43;49.55;101363.50;5063176;28;20487;-45
2022/05/13 03:54:03;;;;;;;;;;;;;;;14.36;49.89;101357.75;5066584;28;19920;-46
2022/05/13 03:56:29;;;;;;;;;;;;;;;14.21;49.70;101353.44;5064149;28;20376;-51
2022/05/13 03:58:54;;;;;;;;;;;;;;;14.18;50.00;101347.41;5066188;28;19924;-45
2022/05/13 04:01:19;;;;;;;;;;;;;;;14.20;50.13;101357.88;5066465;28;19951;-47
2022/05/13 04:03:47;;;;;;;;;;;;;;;14.25;50.20;101363.75;5066889;28;20019;-46
2022/05/13 04:08:56;;;;;;;;;;;;;;;14.30;50.25;101364.28;5066506;28;19943;-45
2022/05/13 04:11:22;;;;;;;;;;;;;;;14.25;50.12;101355.81;5068276;28;19920;-45
2022/05/13 04:16:32;;;;;;;;;;;;;;;14.20;50.14;101362.34;5070404;28;19932;-45
2022/05/13 04:18:58;;;;;;;;;;;;;;;14.24;49.99;101364.69;5069518;28;19920;-44
2022/05/13 04:21:25;;;;;;;;;;;;;;;14.27;49.90;101363.63;5057124;28;19917;-44
2022/05/13 04:23:53;;;;;;;;;;;;;;;14.27;49.96;101368.91;5062491;28;19932;-47
2022/05/13 04:26:18;;;;;;;;;;;;;;;14.26;49.76;101370.72;5060875;28;19970;-45
2022/05/13 04:28:45;;;;;;;;;;;;;;;14.28;49.84;101366.19;5058469;28;20372;-49
2022/05/13 04:31:10;;;;;;;;;;;;;;;14.32;49.84;101370.31;5052054;28;20077;-45
2022/05/13 04:33:36;;;;;;;;;;;;;;;14.38;49.98;101370.91;5058439;28;19917;-44
2022/05/13 04:36:01;;;;;;;;;;;;;;;14.42;50.00;101372.41;5062817;28;19924;-47
2022/05/13 04:38:27;;;;;;;;;;;;;;;14.47;49.72;101368.50;5061354;28;19920;-44
2022/05/13 04:40:52;;;;;;;;;;;;;;;14.50;49.84;101367.44;5059144;28;19943;-44
2022/05/13 04:43:17;;;;;;;;;;;;;;;14.53;49.78;101361.09;5063169;28;19932;-45
2022/05/13 04:45:43;;;;;;;;;;;;;;;14.55;49.80;101368.00;5068045;28;20246;-45
2022/05/13 04:48:18;;;;;;;;;;;;;;;14.61;50.01;101366.75;5060057;28;19947;-48
2022/05/13 04:50:51;;;;;;;;;;;;;;;14.69;49.99;101375.06;5069104;28;19920;-47
2022/05/13 04:53:27;;;;;;;;;;;;;;;14.74;49.89;101367.69;5067009;28;19989;-47
2022/05/13 04:55:53;;;;;;;;;;;;;;;14.78;49.73;101365.69;5068340;28;19950;-50
2022/05/13 04:58:19;;;;;;;;;;;;;;;14.81;49.77;101365.50;5062697;28;19966;-49
2022/05/13 05:00:46;;;;;;;;;;;;;;;14.84;49.86;101375.03;5066076;28;20396;-48
2022/05/13 05:03:11;;;;;;;;;;;;;;;14.86;50.05;101376.66;5061999;28;20017;-49
2022/05/13 05:05:36;;;;;;;;;;;;;;;14.83;50.25;101390.09;5066030;28;19929;-48
2022/05/13 05:08:02;;;;;;;;;;;;;;;14.73;50.72;101389.00;5075203;28;20016;-50
2022/05/13 05:10:27;;;;;;;;;;;;;;;14.61;50.85;101383.50;5071861;28;20038;-48
2022/05/13 05:12:53;;;;;;;;;;;;;;;14.60;51.21;101376.50;5075768;28;19966;-50
2022/05/13 05:15:19;;;;;;;;;;;;;;;14.61;50.87;101378.19;5070338;28;19971;-51
2022/05/13 05:17:44;;;;;;;;;;;;;;;14.67;50.89;101376.09;5076513;28;19931;-49
2022/05/13 05:20:09;;;;;;;;;;;;;;;14.71;50.93;101378.47;5076143;28;19973;-49
2022/05/13 05:22:35;;;;;;;;;;;;;;;14.75;50.77;101384.41;5068444;28;19920;-49
2022/05/13 05:25:00;;;;;;;;;;;;;;;14.78;50.46;101377.16;5067862;28;19923;-50
2022/05/13 05:27:26;;;;;;;;;;;;;;;14.86;50.37;101374.00;5077569;28;20003;-47
2022/05/13 05:29:51;;;;;;;;;;;;;;;14.91;50.19;101369.22;5058078;28;19920;-48
2022/05/13 05:32:16;;;;;;;;;;;;;;;15.02;50.23;101383.59;5075121;28;19917;-45
2022/05/13 05:34:42;;;;;;;;;;;;;;;15.09;50.27;101392.81;5069280;28;19928;-47
2022/05/13 05:37:07;;;;;;;;;;;;;;;15.15;49.84;101376.50;5060391;28;19928;-52
2022/05/13 05:39:33;;;;;;;;;;;;;;;15.24;49.83;101375.03;5063203;28;19917;-48
2022/05/13 05:41:58;;;;;;;;;;;;;;;15.33;49.81;101377.06;5057456;28;19924;-45
2022/05/13 05:44:23;;;;;;;;;;;;;;;15.44;49.59;101375.47;5065064;28;19929;-46
2022/05/13 05:46:49;;;;;;;;;;;;;;;15.50;49.48;101373.25;5067596;28;20015;-50
2022/05/13 05:49:14;;;;;;;;;;;;;;;15.58;49.35;101361.28;5068791;28;19934;-47
2022/05/13 05:51:39;;;;;;;;;;;;;;;15.65;49.51;101352.78;5067160;28;19924;-49
2022/05/13 05:59:32;;;;;;;;;;;;;;;15.91;49.72;101357.25;5060790;28;19958;-46
2022/05/13 06:01:57;;;;;;;;;;;;;;;15.98;49.84;101367.31;5064301;28;19928;-49
2022/05/13 06:04:23;;;;;;;;;;;;;;;16.05;49.79;101375.69;5067567;28;20443;-50
2022/05/13 06:06:48;;;;;;;;;;;;;;;16.10;49.82;101370.91;5065328;28;19928;-49
2022/05/13 06:09:13;;;;;;;;;;;;;;;16.16;49.75;101356.34;5065558;28;20372;-49
2022/05/13 06:11:39;;;;;;;;;;;;;;;16.22;49.86;101360.38;5067037;28;19924;-49
2022/05/13 06:14:04;;;;;;;;;;;;;;;16.28;49.80;101374.06;5065993;28;20411;-49
2022/05/13 06:16:30;;;;;;;;;;;;;;;16.37;49.95;101385.81;5068389;28;19924;-49
2022/05/13 06:19:00;;;;;;;;;;;;;;;16.44;49.94;101383.56;5062202;28;19931;-47
2022/05/13 06:21:25;;;;;;;;;;;;;;;16.49;49.75;101378.75;5062143;28;19932;-50
2022/05/13 06:23:50;;;;;;;;;;;;;;;16.53;49.66;101374.09;5064395;28;19920;-49
2022/05/13 06:26:16;;;;;;;;;;;;;;;16.58;49.70;101371.91;5065369;28;19928;-50
2022/05/13 06:28:41;;;;;;;;;;;;;;;16.66;49.61;101372.22;5062474;28;20015;-48
2022/05/13 06:31:07;;;;;;;;;;;;;;;16.71;49.46;101383.34;5064153;28;19931;-49
2022/05/13 06:33:34;;;;;;;;;;;;;;;16.77;49.53;101382.06;5066330;28;20417;-51
2022/05/13 06:35:59;;;;;;;;;;;;;;;16.83;49.49;101375.44;5065068;28;20043;-49
2022/05/13 06:38:25;;;;;;;;;;;;;;;16.88;49.38;101376.78;5061808;28;20023;-49
2022/05/13 06:40:51;;;;;;;;;;;;;;;16.92;49.37;101377.41;5064679;28;19931;-50
2022/05/13 06:43:16;;;;;;;;;;;;;;;16.99;49.30;101376.03;5066487;28;19921;-49
2022/05/13 06:45:42;;;;;;;;;;;;;;;17.04;49.31;101368.53;5063086;28;19916;-48
2022/05/13 06:48:08;;;;;;;;;;;;;;;17.13;49.25;101358.19;5066312;28;19920;-49
2022/05/13 06:50:33;;;;;;;;;;;;;;;17.20;49.20;101359.41;5067673;28;19927;-47
2022/05/13 06:52:58;;;;;;;;;;;;;;;17.28;49.17;101369.44;5066836;28;20344;-46
2022/05/13 06:55:24;;;;;;;;;;;;;;;17.33;49.28;101368.13;5066085;28;20059;-48
2022/05/13 06:57:49;;;;;;;;;;;;;;;17.40;49.35;101357.03;5064545;28;20010;-47
2022/05/13 07:00:15;;;;;;;;;;;;;;;17.44;49.27;101356.66;5063837;28;19967;-50
2022/05/13 07:02:40;;;;;;;;;;;;;;;17.49;49.22;101356.31;5062669;28;20400;-48
2022/05/13 07:05:06;;;;;;;;;;;;;;;17.54;49.48;101359.47;5062945;28;19928;-48
2022/05/13 07:07:31;;;;;;;;;;;;;;;17.54;48.06;101353.31;5064859;28;19952;-48
2022/05/13 07:09:57;;;;;;;;;;;;;;;17.42;47.33;101347.13;5063988;28;19975;-49
2022/05/13 07:12:22;;;;;;;;;;;;;;;17.30;46.18;101351.56;5062225;28;20003;-48
2022/05/13 07:14:49;;;;;;;;;;;;;;;17.21;46.73;101347.78;5064287;28;20346;-49
2022/05/13 07:17:14;;;;;;;;;;;;;;;17.22;46.98;101344.19;5062090;28;20303;-48
2022/05/13 07:19:40;;;;;;;;;;;;;;;17.29;46.68;101344.56;5060320;28;19928;-49
2022/05/13 07:22:06;;;;;;;;;;;;;;;17.36;46.43;101351.94;5064627;28;19920;-46
2022/05/13 07:24:31;;;;;;;;;;;;;;;17.43;46.10;101351.47;5067591;28;20400;-49
2022/05/13 07:26:58;;;;;;;;;;;;;;;17.46;45.90;101343.28;5069813;28;20015;-49
2022/05/13 07:29:23;;;;;;;;;;;;;;;17.50;45.75;101339.38;5072521;28;19926;-48
2022/05/13 07:31:48;;;;;;;;;;;;;;;17.52;45.57;101335.66;5063920;28;19916;-49
2022/05/13 07:34:14;;;;;;;;;;;;;;;17.56;45.46;101333.59;5069675;28;20400;-50
2022/05/13 07:36:39;;;;;;;;;;;;;;;17.62;45.44;101346.41;5072925;28;20447;-47
2022/05/13 07:41:57;;;;;;;;;;;;;;;17.67;45.19;101344.25;5067660;28;19955;-50
2022/05/13 07:44:22;;;;;;;;;;;;;;;17.73;44.68;101358.03;5069453;28;20346;-49
2022/05/13 07:46:47;;;;;;;;;;;;;;;17.68;43.90;101351.25;5065507;28;20408;-50
2022/05/13 07:49:13;;;;;;;;;;;;;;;17.59;43.63;101351.97;5066145;28;19949;-48
2022/05/13 07:51:38;;;;;;;;;;;;;;;17.51;43.97;101360.56;5065419;28;19932;-49
2022/05/13 07:54:04;;;;;;;;;;;;;;;17.51;44.42;101354.38;5076840;28;20019;-50
2022/05/13 07:56:29;;;;;;;;;;;;;;;17.57;44.50;101348.59;5071703;28;19919;-47
2022/05/13 07:58:57;;;;;;;;;;;;;;;17.67;44.17;101344.25;5065844;28;19920;-49
2022/05/13 08:01:22;;;;;;;;;;;;;;;17.77;44.05;101349.69;5071783;28;19921;-48
2022/05/13 08:03:49;;;;;;;;;;;;;;;17.82;43.56;101351.97;5068019;28;20291;-49
2022/05/13 08:06:14;;;;;;;;;;;;;;;17.78;43.58;101355.84;5070248;28;19958;-48
2022/05/13 08:08:41;;;;;;;;;;;;;;;17.74;43.60;101349.91;5074323;28;19921;-49
2022/05/13 08:11:08;;;;;;;;;;;;;;;17.75;43.67;101356.09;5071731;28;19923;-49
2022/05/13 08:13:34;;;;;;;;;;;;;;;17.78;43.66;101356.72;5076565;28;20003;-47
2022/05/13 08:16:06;;;;;;;;;;;;;;;17.82;43.64;101358.16;5070016;28;19987;-49
2022/05/13 08:18:32;;;;;;;;;;;;;;;17.87;43.49;101349.81;5069933;28;20338;-49
2022/05/13 08:20:58;;;;;;;;;;;;;;;17.91;43.42;101347.75;5070325;28;19924;-45
2022/05/13 08:23:23;;;;;;;;;;;;;;;17.93;43.41;101343.97;5070721;28;19924;-48
2022/05/13 08:25:48;;;;;;;;;;;;;;;17.98;43.40;101347.16;5070702;28;19916;-46
2022/05/13 08:28:14;;;;;;;;;;;;;;;18.02;43.22;101346.94;5066505;28;19946;-50
2022/05/13 08:30:40;;;;;;;;;;;;;;;18.06;43.38;101346.56;5071434;28;19951;-49
2022/05/13 08:33:08;;;;;;;;;;;;;;;18.10;43.35;101352.47;5070866;28;19920;-48
2022/05/13 08:35:37;;;;;;;;;;;;;;;18.11;43.44;101352.38;5072057;28;19923;-49
2022/05/13 08:38:03;;;;;;;;;;;;;;;18.14;43.35;101351.25;5068203;28;19927;-46
2022/05/13 08:40:37;;;;;;;;;;;;;;;18.12;43.10;101351.41;5074461;28;19912;-48
2022/05/13 08:43:13;;;;;;;;;;;;;;;18.12;43.10;101347.88;5075774;28;19924;-49
2022/05/13 08:45:40;;;;;;;;;;;;;;;18.09;43.13;101342.78;5074779;28;19924;-48
2022/05/13 08:48:07;;;;;;;;;;;;;;;18.08;43.29;101335.75;5077905;28;19920;-50
2022/05/13 08:50:37;;;;;;;;;;;;;;;18.09;43.12;101326.81;5070984;28;20408;-49
2022/05/13 08:53:12;;;;;;;;;;;;;;;18.13;43.30;101338.91;5078553;28;19938;-53
2022/05/13 08:55:40;;;;;;;;;;;;;;;18.18;43.46;101331.41;5076697;28;20004;-48
2022/05/13 08:58:08;;;;;;;;;;;;;;;18.25;43.71;101343.25;5071824;28;19973;-48
2022/05/13 09:00:36;;;;;;;;;;;;;;;18.33;43.84;101336.47;5068956;28;20312;-47
2022/05/13 09:03:21;;;;;;;;;;;;;;;18.41;43.91;101331.34;5078636;28;19947;-49
2022/05/13 09:05:50;;;;;;;;;;;;;;;18.50;43.94;101327.94;5072045;28;19938;-52
2022/05/13 09:08:15;;;;;;;;;;;;;;;18.61;43.82;101336.84;5074676;28;20702;-49
2022/05/13 09:10:53;;;;;;;;;;;;;;;18.65;43.49;101332.97;5075944;28;20448;-48
2022/05/13 09:13:26;;;;;;;;;;;;;;;18.66;43.65;101337.34;5073207;28;20364;-49
2022/05/13 09:15:55;;;;;;;;;;;;;;;18.62;43.38;101341.22;5076649;28;19912;-48
2022/05/13 09:18:47;;;;;;;;;;;;;;;18.53;43.44;101330.31;5074097;28;19920;-51
2022/05/13 09:21:17;;;;;;;;;;;;;;;18.43;43.39;101335.59;5071897;28;19912;-48
2022/05/13 09:23:42;;;;;;;;;;;;;;;18.38;43.49;101331.59;5069022;28;19921;-50
2022/05/13 09:26:13;;;;;;;;;;;;;;;18.33;43.37;101333.81;5072514;28;19927;-47
2022/05/13 09:28:57;;;;;;;;;;;;;;;18.25;43.50;101335.25;5074646;28;19916;-48
2022/05/13 09:31:26;;;;;;;;;;;;;;;18.21;43.56;101335.63;5072161;28;19991;-49
2022/05/13 09:33:52;;;;;;;;;;;;;;;18.17;43.65;101313.75;5073331;28;19999;-45
2022/05/13 09:36:37;;;;;;;;;;;;;;;18.17;43.70;101316.41;5072602;28;20003;-46
2022/05/13 09:39:22;;;;;;;;;;;;;;;18.22;43.88;101303.56;5072533;28;19912;-49
2022/05/13 09:41:48;;;;;;;;;;;;;;;18.30;43.98;101308.28;5071592;28;19916;-44
2022/05/13 09:44:25;;;;;;;;;;;;;;;18.36;43.80;101309.59;5071519;28;19920;-45
2022/05/13 09:46:52;;;;;;;;;;;;;;;18.37;43.82;101301.44;5071811;28;19952;-48
2022/05/13 09:49:17;;;;;;;;;;;;;;;18.36;43.67;101310.41;5076177;28;19921;-47
2022/05/13 09:51:55;;;;;;;;;;;;;;;18.34;43.63;101311.53;5074111;28;20338;-47
2022/05/13 09:54:28;;;;;;;;;;;;;;;18.36;43.57;101302.41;5078606;28;19916;-45
2022/05/13 09:56:55;;;;;;;;;;;;;;;18.37;43.43;101308.59;5071901;28;19950;-44
2022/05/13 09:59:24;;;;;;;;;;;;;;;18.40;43.11;101313.66;5070095;28;19931;-45
2022/05/13 10:01:50;;;;;;;;;;;;;;;18.42;43.25;101299.25;5072142;28;20339;-49
2022/05/13 10:04:19;;;;;;;;;;;;;;;18.46;43.37;101302.50;5069754;28;19932;-48
2022/05/13 10:06:44;;;;;;;;;;;;;;;18.42;43.13;101301.06;5072744;28;19978;-53
2022/05/13 10:14:51;;;;;;;;;;;;;;;18.51;42.87;101295.00;5072557;28;19966;-49
2022/05/13 10:17:21;;;;;;;;;;;;;;;18.55;42.71;101295.56;5069684;28;19924;-45
2022/05/13 10:19:58;;;;;;;;;;;;;;;18.52;42.62;101295.81;5071490;28;19921;-44
2022/05/13 10:22:26;;;;;;;;;;;;;;;18.46;42.59;101286.53;5068934;28;19994;-45
2022/05/13 10:24:55;;;;;;;;;;;;;;;18.42;42.59;101293.94;5076873;28;19936;-44
2022/05/13 10:27:32;;;;;;;;;;;;;;;18.40;42.64;101287.03;5071072;28;19912;-48
2022/05/13 10:30:02;;;;;;;;;;;;;;;18.45;42.63;101295.50;5068223;28;19917;-47
2022/05/13 10:32:38;;;;;;;;;;;;;;;18.46;42.35;101291.84;5073750;28;19912;-50
2022/05/13 10:35:07;;;;;;;;;;;;;;;18.45;42.23;101284.00;5071103;28;19913;-47
2022/05/13 10:37:50;;;;;;;;;;;;;;;18.46;42.33;101275.88;5076964;28;19913;-45
2022/05/13 10:40:18;;;;;;;;;;;;;;;18.46;42.32;101281.19;5080930;28;19920;-47
2022/05/13 10:42:55;;;;;;;;;;;;;;;18.50;42.25;101279.97;5076231;28;19927;-48
2022/05/13 10:45:24;;;;;;;;;;;;;;;18.51;42.04;101279.00;5072003;28;19917;-45
2022/05/13 10:47:52;;;;;;;;;;;;;;;18.50;41.94;101277.31;5067104;28;19916;-51
2022/05/13 10:50:22;;;;;;;;;;;;;;;18.51;41.68;101273.69;5071383;28;19962;-46
2022/05/13 10:53:07;;;;;;;;;;;;;;;18.53;41.18;101287.69;5072666;28;19940;-45
2022/05/13 10:55:45;;;;;;;;;;;;;;;18.54;41.38;101293.88;5064956;28;20434;-45
2022/05/13 10:58:11;;;;;;;;;;;;;;;18.54;41.39;101278.72;5068467;28;19920;-45
2022/05/13 11:00:46;;;;;;;;;;;;;;;18.58;41.28;101266.00;5070350;28;19935;-48
2022/05/13 11:03:23;;;;;;;;;;;;;;;18.63;41.34;101270.94;5069773;28;19963;-45
2022/05/13 11:05:48;;;;;;;;;;;;;;;18.66;41.33;101262.72;5073151;28;19912;-45
2022/05/13 11:08:16;;;;;;;;;;;;;;;18.69;41.16;101265.09;5074583;28;19919;-44
2022/05/13 11:10:51;;;;;;;;;;;;;;;18.70;40.85;101266.78;5073626;28;19912;-46
2022/05/13 11:13:24;;;;;;;;;;;;;;;18.70;40.04;101256.13;5070769;28;19913;-47
2022/05/13 11:15:49;;;;;;;;;;;;;;;18.73;40.37;101261.19;5070816;28;19912;-47
2022/05/13 11:18:33;;;;;;;;;;;;;;;18.80;39.60;101254.38;5073373;28;19997;-48
2022/05/13 11:20:58;;;;;;;;;;;;;;;18.93;39.80;101264.00;5069247;28;20327;-47
2022/05/13 11:23:24;;;;;;;;;;;;;;;18.99;38.77;101266.16;5075994;28;19921;-45
2022/05/13 11:26:09;;;;;;;;;;;;;;;19.04;38.54;101261.28;5069639;28;19913;-45
2022/05/13 11:28:51;;;;;;;;;;;;;;;19.08;37.69;101254.72;5069025;28;19977;-46
2022/05/13 11:31:29;;;;;;;;;;;;;;;19.08;37.74;101256.53;5076683;28;20402;-45
2022/05/13 11:34:02;;;;;;;;;;;;;;;19.01;37.69;101272.22;5070405;28;20011;-45
2022/05/13 11:36:37;;;;;;;;;;;;;;;18.96;37.93;101277.94;5072288;28;19989;-49
2022/05/13 11:39:06;;;;;;;;;;;;;;;18.89;37.69;101272.25;5071333;28;19919;-46
2022/05/13 11:41:46;;;;;;;;;;;;;;;18.86;37.79;101272.50;5070455;28;19919;-45
2022/05/13 11:44:12;;;;;;;;;;;;;;;18.81;37.90;101261.41;5070715;28;19924;-46
2022/05/13 11:46:56;;;;;;;;;;;;;;;18.82;38.04;101270.25;5066725;28;19963;-48
2022/05/13 11:49:28;;;;;;;;;;;;;;;18.85;38.19;101260.16;5069136;28;19973;-48
2022/05/13 11:51:54;;;;;;;;;;;;;;;18.87;37.59;101257.38;5067515;28;19952;-49
2022/05/13 11:54:22;;;;;;;;;;;;;;;18.85;37.65;101259.31;5071788;28;20344;-49
2022/05/13 11:56:48;;;;;;;;;;;;;;;18.87;37.87;101263.53;5069545;28;19917;-49
2022/05/13 11:59:28;;;;;;;;;;;;;;;18.86;37.86;101277.84;5068099;28;20359;-49
2022/05/13 12:01:57;;;;;;;;;;;;;;;18.85;37.95;101278.00;5068409;28;20311;-50
2022/05/13 12:04:26;;;;;;;;;;;;;;;18.75;37.42;101275.25;5064442;28;19983;-52
2022/05/13 12:06:51;;;;;;;;;;;;;;;18.69;37.79;101289.06;5069844;28;20334;-51
2022/05/13 12:09:24;;;;;;;;;;;;;;;18.64;37.71;101267.31;5072927;28;20447;-48
2022/05/13 12:12:08;;;;;;;;;;;;;;;18.57;37.79;101291.81;5068394;28;19917;-50
2022/05/13 12:14:47;;;;;;;;;;;;;;;18.49;37.75;101288.94;5067676;28;20365;-49
2022/05/13 12:17:18;;;;;;;;;;;;;;;18.49;38.13;101293.41;5073838;28;20014;-49
2022/05/13 12:19:44;;;;;;;;;;;;;;;18.48;37.75;101307.69;5075211;28;20277;-50
2022/05/13 12:22:12;;;;;;;;;;;;;;;18.46;37.80;101302.50;5070388;28;19916;-50
2022/05/13 12:25:16;;;;;;;;;;;;;;;18.48;37.69;101291.72;5071923;28;20012;-50
2022/05/13 12:27:59;;;;;;;;;;;;;;;18.56;37.96;101283.94;5030520;28;19913;-49
2022/05/13 12:30:31;;;;;;;;;;;;;;;18.66;37.95;101286.69;5030800;28;19925;-49
2022/05/13 12:33:14;;;;;;;;;;;;;;;18.76;38.03;101281.41;5055742;28;20387;-48
2022/05/13 12:38:25;;;;;;;;;;;;;;;18.81;37.80;101285.41;5073497;28;20437;-50
2022/05/13 12:40:54;;;;;;;;;;;;;;;18.86;37.45;101309.84;5075065;28;19920;-48
2022/05/13 12:43:22;;;;;;;;;;;;;;;18.84;37.67;101301.13;5074979;28;19923;-51
2022/05/13 12:45:59;;;;;;;;;;;;;;;18.84;37.56;101303.78;5073514;28;19947;-49
2022/05/13 12:48:25;;;;;;;;;;;;;;;18.82;37.71;101307.56;5070619;28;19931;-49
2022/05/13 12:50:50;;;;;;;;;;;;;;;18.75;37.21;101307.22;5072420;28;19928;-51
2022/05/13 12:53:27;;;;;;;;;;;;;;;18.73;37.26;101314.50;5072155;28;19948;-50
2022/05/13 12:56:22;;;;;;;;;;;;;;;18.59;37.12;101311.19;5073974;28;19965;-49
2022/05/13 12:58:52;;;;;;;;;;;;;;;18.51;37.03;101337.63;5064840;28;19944;-50
2022/05/13 13:01:17;;;;;;;;;;;;;;;18.37;37.12;101317.44;5071466;28;20269;-50
2022/05/13 13:03:44;;;;;;;;;;;;;;;18.31;37.26;101323.25;5076545;28;19939;-49
2022/05/13 13:06:16;;;;;;;;;;;;;;;18.36;37.59;101328.22;5070728;28;19917;-49